createdAt,value
2022-09-15T00:01:40.137Z,66.20
2022-09-15T00:04:10.668Z,66.49
2022-09-15T00:06:39.203Z,66.31
2022-09-15T00:09:07.617Z,66.74
2022-09-15T00:11:37.715Z,66.93
2022-09-15T00:14:08.184Z,66.96
2022-09-15T00:16:36.981Z,66.92
2022-09-15T00:19:06.496Z,66.87
2022-09-15T00:21:39.653Z,66.85
2022-09-15T00:24:09.064Z,66.77
2022-09-15T00:26:38.294Z,66.76
2022-09-15T00:29:06.813Z,66.72
2022-09-15T00:31:35.533Z,66.76
2022-09-15T00:34:04.264Z,66.60
2022-09-15T00:36:33.356Z,66.47
2022-09-15T00:39:03.353Z,66.15
2022-09-15T00:41:32.173Z,66.66
2022-09-15T00:44:02.564Z,66.24
2022-09-15T00:46:32.845Z,66.67
2022-09-15T00:49:07.534Z,66.68
2022-09-15T00:51:42.704Z,66.59
2022-09-15T00:54:19.037Z,66.22
2022-09-15T00:56:49.626Z,66.35
2022-09-15T00:59:22.193Z,66.46
2022-09-15T01:01:56.898Z,66.43
2022-09-15T01:04:26.074Z,65.72
2022-09-15T01:07:00.084Z,66.49
2022-09-15T01:09:34.954Z,65.62
2022-09-15T01:12:04.969Z,66.01
2022-09-15T01:14:33.565Z,65.63
2022-09-15T01:17:07.233Z,65.74
2022-09-15T01:20:17.654Z,65.95
2022-09-15T01:23:02.823Z,65.63
2022-09-15T01:25:54.685Z,65.93
2022-09-15T01:28:56.708Z,66.17
2022-09-15T01:31:31.447Z,66.28
2022-09-15T01:34:03.300Z,66.60
2022-09-15T01:36:40.103Z,66.41
2022-09-15T01:39:16.714Z,66.28
2022-09-15T01:41:50.883Z,66.42
2022-09-15T01:44:24.564Z,66.07
2022-09-15T01:46:58.789Z,66.23
2022-09-15T01:49:30.918Z,66.52
2022-09-15T01:51:59.374Z,66.23
2022-09-15T01:54:32.845Z,66.37
2022-09-15T01:57:01.516Z,66.44
2022-09-15T01:59:30.574Z,65.96
2022-09-15T02:02:05.610Z,66.08
2022-09-15T02:04:40.658Z,66.54
2022-09-15T02:07:15.417Z,66.33
2022-09-15T02:09:51.976Z,65.83
2022-09-15T02:12:29.454Z,66.86
2022-09-15T02:15:03.679Z,66.78
2022-09-15T02:17:38.503Z,66.57
2022-09-15T02:20:16.338Z,66.90
2022-09-15T02:22:50.395Z,66.82
2022-09-15T02:25:24.235Z,66.81
2022-09-15T02:27:56.353Z,67.09
2022-09-15T02:30:25.656Z,66.24
2022-09-15T02:32:58.177Z,66.84
2022-09-15T02:35:29.795Z,66.46
2022-09-15T02:37:59.743Z,66.57
2022-09-15T02:40:30.570Z,66.56
2022-09-15T02:43:01.985Z,65.90
2022-09-15T02:45:31.817Z,65.95
2022-09-15T02:48:02.044Z,66.11
2022-09-15T02:50:31.155Z,66.30
2022-09-15T02:52:59.636Z,65.86
2022-09-15T02:55:29.337Z,66.61
2022-09-15T02:57:57.863Z,66.15
2022-09-15T03:00:26.804Z,66.29
2022-09-15T03:02:56.380Z,66.01
2022-09-15T03:05:28.895Z,65.70
2022-09-15T03:07:58.364Z,66.43
2022-09-15T03:10:28.229Z,66.12
2022-09-15T03:12:56.994Z,66.22
2022-09-15T03:15:26.894Z,65.95
2022-09-15T03:17:55.973Z,65.41
2022-09-15T03:20:28.277Z,66.08
2022-09-15T03:22:57.164Z,66.06
2022-09-15T03:25:27.109Z,66.06
2022-09-15T03:27:55.715Z,65.96
2022-09-15T03:30:24.374Z,66.44
2022-09-15T03:32:52.814Z,66.24
2022-09-15T03:35:21.384Z,67.03
2022-09-15T03:37:51.285Z,66.75
2022-09-15T03:40:19.785Z,66.60
2022-09-15T03:42:48.385Z,66.53
2022-09-15T03:45:16.945Z,66.58
2022-09-15T03:47:45.494Z,66.18
2022-09-15T03:50:13.974Z,66.16
2022-09-15T03:52:42.445Z,65.99
2022-09-15T03:55:12.485Z,66.27
2022-09-15T03:57:41.013Z,66.32
2022-09-15T04:00:10.624Z,65.85
2022-09-15T04:02:39.177Z,65.58
2022-09-15T04:05:08.893Z,66.26
2022-09-15T04:07:37.465Z,66.45
2022-09-15T04:10:06.584Z,66.62
2022-09-15T04:12:37.195Z,66.65
2022-09-15T04:15:06.564Z,66.16
2022-09-15T04:17:35.104Z,66.51
2022-09-15T04:20:04.364Z,66.22
2022-09-15T04:22:32.864Z,66.20
2022-09-15T04:25:01.314Z,66.48
2022-09-15T04:27:29.903Z,66.36
2022-09-15T04:29:59.894Z,66.51
2022-09-15T04:32:31.114Z,66.44
2022-09-15T04:34:59.568Z,66.21
2022-09-15T04:37:28.045Z,65.99
2022-09-15T04:39:57.103Z,66.09
2022-09-15T04:42:25.555Z,66.33
2022-09-15T04:44:54.035Z,65.87
2022-09-15T04:47:24.036Z,66.37
2022-09-15T04:49:52.484Z,66.74
2022-09-15T04:52:21.084Z,66.60
2022-09-15T04:54:49.610Z,66.28
2022-09-15T04:57:18.084Z,66.02
2022-09-15T04:59:46.514Z,65.72
2022-09-15T05:02:15.551Z,66.16
2022-09-15T05:04:46.285Z,66.31
2022-09-15T05:07:14.717Z,66.32
2022-09-15T05:09:43.217Z,66.17
2022-09-15T05:12:11.864Z,66.11
2022-09-15T05:14:40.324Z,65.98
2022-09-15T05:17:08.854Z,65.73
2022-09-15T05:19:37.304Z,66.08
2022-09-15T05:22:07.224Z,66.27
2022-09-15T05:24:35.745Z,66.18
2022-09-15T05:27:04.257Z,66.22
2022-09-15T05:29:32.654Z,66.69
2022-09-15T05:32:01.104Z,66.74
2022-09-15T05:34:29.534Z,67.03
2022-09-15T05:36:58.455Z,67.23
2022-09-15T05:39:28.435Z,67.13
2022-09-15T05:41:56.914Z,67.02
2022-09-15T05:44:25.464Z,67.13
2022-09-15T05:46:54.013Z,67.14
2022-09-15T05:49:22.465Z,67.29
2022-09-15T05:51:51.004Z,67.04
2022-09-15T05:54:19.485Z,66.73
2022-09-15T05:56:49.430Z,66.86
2022-09-15T05:59:17.984Z,66.74
2022-09-15T06:01:46.603Z,67.13
2022-09-15T06:04:15.104Z,67.02
2022-09-15T06:06:43.575Z,66.85
2022-09-15T06:09:12.125Z,66.99
2022-09-15T06:11:40.586Z,66.98
2022-09-15T06:14:10.695Z,67.18
2022-09-15T06:16:39.609Z,66.95
2022-09-15T06:19:08.195Z,67.00
2022-09-15T06:21:36.694Z,66.73
2022-09-15T06:24:07.501Z,66.48
2022-09-15T06:26:36.264Z,67.08
2022-09-15T06:29:06.430Z,66.79
2022-09-15T06:31:37.296Z,66.92
2022-09-15T06:34:06.916Z,67.01
2022-09-15T06:36:35.454Z,66.77
2022-09-15T06:39:04.124Z,66.01
2022-09-15T06:41:58.301Z,66.88
2022-09-15T06:44:21.714Z,66.57
2022-09-15T06:46:51.744Z,66.34
2022-09-15T06:49:22.174Z,66.61
2022-09-15T06:51:50.655Z,66.07
2022-09-15T06:54:19.594Z,66.56
2022-09-15T06:56:48.195Z,66.84
2022-09-15T06:59:18.224Z,67.20
2022-09-15T07:01:46.768Z,66.42
2022-09-15T07:04:16.746Z,66.86
2022-09-15T07:06:45.646Z,67.04
2022-09-15T07:09:14.463Z,66.33
2022-09-15T07:11:42.994Z,65.90
2022-09-15T07:14:12.559Z,65.87
2022-09-15T07:16:41.149Z,66.19
2022-09-15T07:19:09.814Z,66.56
2022-09-15T07:21:39.774Z,66.33
2022-09-15T07:24:08.654Z,66.52
2022-09-15T07:26:37.214Z,66.69
2022-09-15T07:29:08.077Z,67.12
2022-09-15T07:31:39.295Z,66.95
2022-09-15T07:34:08.636Z,66.92
2022-09-15T07:36:38.634Z,66.91
2022-09-15T07:39:07.305Z,66.75
2022-09-15T07:41:36.016Z,66.43
2022-09-15T07:44:04.825Z,66.41
2022-09-15T07:46:34.783Z,66.96
2022-09-15T07:49:06.733Z,65.72
2022-09-15T07:51:35.244Z,65.97
2022-09-15T07:54:06.124Z,66.54
2022-09-15T07:56:34.684Z,66.64
2022-09-15T07:59:03.305Z,66.86
2022-09-15T08:01:31.874Z,66.44
2022-09-15T08:04:00.614Z,67.39
2022-09-15T08:06:29.553Z,66.46
2022-09-15T08:09:00.609Z,66.88
2022-09-15T08:11:31.874Z,65.90
2022-09-15T08:14:02.848Z,66.55
2022-09-15T08:16:31.459Z,66.90
2022-09-15T08:19:00.061Z,66.69
2022-09-15T08:21:29.386Z,66.89
2022-09-15T08:23:59.334Z,67.19
2022-09-15T08:26:29.604Z,65.82
2022-09-15T08:29:00.816Z,65.43
2022-09-15T08:31:29.423Z,66.82
2022-09-15T08:34:04.135Z,65.89
2022-09-15T08:36:32.794Z,66.93
2022-09-15T08:39:01.644Z,66.30
2022-09-15T08:41:33.494Z,66.06
2022-09-15T08:44:12.323Z,66.05
2022-09-15T08:46:44.793Z,65.45
2022-09-15T08:49:35.557Z,66.09
2022-09-15T08:52:15.176Z,65.32
2022-09-15T08:54:45.923Z,65.70
2022-09-15T08:57:21.564Z,65.89
2022-09-15T08:59:51.545Z,65.46
2022-09-15T09:02:51.821Z,66.06
2022-09-15T09:05:34.635Z,65.71
2022-09-15T09:08:18.925Z,65.51
2022-09-15T09:10:53.504Z,65.88
2022-09-15T09:13:35.460Z,65.14
2022-09-15T09:16:31.005Z,64.60
2022-09-15T09:19:19.854Z,64.61
2022-09-15T09:21:53.334Z,65.08
2022-09-15T09:24:34.566Z,64.91
2022-09-15T09:27:03.095Z,65.27
2022-09-15T09:29:36.561Z,65.28
2022-09-15T09:32:21.380Z,65.05
2022-09-15T09:35:00.299Z,65.47
2022-09-15T09:37:29.235Z,64.51
2022-09-15T09:39:57.692Z,64.44
2022-09-15T09:42:31.650Z,64.03
2022-09-15T09:45:00.069Z,64.78
2022-09-15T09:47:31.398Z,64.25
2022-09-15T09:50:00.065Z,64.65
2022-09-15T09:52:36.139Z,63.89
2022-09-15T09:55:17.357Z,64.51
2022-09-15T09:57:45.779Z,64.44
2022-09-15T10:00:32.949Z,64.52
2022-09-15T10:03:12.468Z,64.63
2022-09-15T10:05:41.139Z,63.99
2022-09-15T10:08:17.039Z,64.09
2022-09-15T10:10:52.929Z,63.61
2022-09-15T10:13:21.978Z,64.24
2022-09-15T10:15:54.840Z,63.74
2022-09-15T10:18:37.050Z,65.27
2022-09-15T10:21:07.571Z,64.22
2022-09-15T10:23:36.199Z,63.72
2022-09-15T10:26:32.258Z,64.51
2022-09-15T10:29:15.978Z,63.26
2022-09-15T10:31:47.398Z,63.09
2022-09-15T10:34:35.139Z,63.89
2022-09-15T10:37:15.779Z,63.46
2022-09-15T10:39:53.378Z,62.92
2022-09-15T10:42:33.391Z,63.31
2022-09-15T10:45:26.180Z,62.77
2022-09-15T10:48:07.335Z,62.75
2022-09-15T10:50:52.009Z,62.58
2022-09-15T10:53:33.609Z,63.40
2022-09-15T10:56:12.109Z,62.21
2022-09-15T10:58:58.909Z,63.16
2022-09-15T11:01:46.087Z,63.08
2022-09-15T11:04:41.378Z,62.63
2022-09-15T11:07:19.911Z,62.00
2022-09-15T11:09:54.499Z,62.57
2022-09-15T11:12:36.029Z,62.23
2022-09-15T11:15:21.909Z,62.15
2022-09-15T11:18:07.778Z,62.92
2022-09-15T11:20:59.408Z,61.69
2022-09-15T11:23:35.148Z,62.09
2022-09-15T11:26:06.578Z,62.07
2022-09-15T11:28:41.218Z,62.04
2022-09-15T11:31:18.172Z,61.70
2022-09-15T11:33:51.917Z,62.82
2022-09-15T11:36:24.439Z,62.21
2022-09-15T11:38:59.189Z,62.11
2022-09-15T11:41:34.830Z,61.66
2022-09-15T11:44:16.663Z,61.64
2022-09-15T11:47:04.418Z,61.51
2022-09-15T11:49:39.323Z,61.25
2022-09-15T11:52:20.498Z,61.81
2022-09-15T11:54:56.991Z,60.80
2022-09-15T11:57:30.498Z,60.46
2022-09-15T12:00:05.662Z,61.25
2022-09-15T12:02:41.662Z,60.84
2022-09-15T12:05:15.899Z,60.52
2022-09-15T12:07:50.668Z,61.72
2022-09-15T12:10:25.218Z,61.29
2022-09-15T12:12:54.620Z,61.23
2022-09-15T12:15:27.634Z,60.85
2022-09-15T12:18:21.360Z,61.26
2022-09-15T12:21:03.291Z,60.85
2022-09-15T12:23:36.590Z,61.04
2022-09-15T12:26:16.668Z,60.89
2022-09-15T12:29:02.348Z,60.82
2022-09-15T12:31:48.449Z,60.69
2022-09-15T12:34:36.876Z,61.14
2022-09-15T12:37:14.860Z,60.66
2022-09-15T12:39:44.473Z,60.83
2022-09-15T12:42:21.412Z,60.58
2022-09-15T12:44:54.011Z,61.26
2022-09-15T12:47:31.963Z,61.13
2022-09-15T12:50:17.182Z,61.46
2022-09-15T12:52:48.602Z,61.46
2022-09-15T12:55:22.868Z,62.43
2022-09-15T12:57:56.208Z,60.82
2022-09-15T13:00:45.642Z,60.99
2022-09-15T13:03:54.179Z,61.68
2022-09-15T13:06:24.570Z,60.56
2022-09-15T13:09:26.269Z,60.18
2022-09-15T13:11:57.848Z,59.85
2022-09-15T13:14:37.059Z,60.53
2022-09-15T13:17:11.958Z,60.05
2022-09-15T13:19:46.782Z,59.80
2022-09-15T13:22:23.790Z,61.14
2022-09-15T13:24:59.218Z,59.98
2022-09-15T13:27:36.571Z,59.79
2022-09-15T13:30:33.214Z,59.56
2022-09-15T13:33:12.528Z,59.06
2022-09-15T13:35:54.269Z,59.30
2022-09-15T13:39:05.609Z,58.77
2022-09-15T13:41:59.339Z,59.97
2022-09-15T13:44:52.831Z,59.42
2022-09-15T13:47:35.477Z,59.35
2022-09-15T13:50:15.829Z,59.58
2022-09-15T13:52:58.899Z,59.13
2022-09-15T13:55:28.730Z,59.86
2022-09-15T14:00:59.098Z,59.44
2022-09-15T14:03:38.209Z,59.62
2022-09-15T14:06:14.759Z,59.03
2022-09-15T14:08:45.373Z,58.90
2022-09-15T14:11:17.368Z,58.87
2022-09-15T14:13:49.042Z,59.94
2022-09-15T14:16:25.069Z,59.07
2022-09-15T14:18:57.898Z,59.91
2022-09-15T14:21:28.388Z,59.76
2022-09-15T14:23:59.450Z,59.44
2022-09-15T14:26:30.678Z,60.22
2022-09-15T14:29:01.119Z,60.28
2022-09-15T14:31:34.827Z,60.19
2022-09-15T14:34:09.913Z,59.70
2022-09-15T14:36:38.400Z,59.27
2022-09-15T14:39:18.089Z,59.37
2022-09-15T14:41:47.511Z,59.25
2022-09-15T14:47:19.219Z,59.18
2022-09-15T14:49:50.731Z,59.23
2022-09-15T14:52:27.609Z,59.78
2022-09-15T14:55:00.900Z,58.94
2022-09-15T14:57:33.435Z,59.34
2022-09-15T15:00:07.688Z,59.90
2022-09-15T15:02:50.219Z,60.15
2022-09-15T15:05:26.143Z,59.58
2022-09-15T15:07:56.666Z,59.65
2022-09-15T15:10:30.076Z,59.21
2022-09-15T15:13:03.708Z,60.13
2022-09-15T15:15:34.472Z,59.75
2022-09-15T15:18:07.649Z,60.14
2022-09-15T15:20:48.447Z,60.32
2022-09-15T15:23:21.234Z,60.07
2022-09-15T15:25:50.578Z,59.89
2022-09-15T15:28:33.744Z,61.02
2022-09-15T15:31:14.000Z,60.76
2022-09-15T15:33:49.337Z,60.53
2022-09-15T15:36:24.090Z,60.19
2022-09-15T15:38:55.891Z,60.71
2022-09-15T15:41:27.242Z,60.68
2022-09-15T15:44:00.889Z,61.40
2022-09-15T15:46:51.008Z,61.17
2022-09-15T15:49:21.189Z,61.56
2022-09-15T15:51:51.159Z,61.00
2022-09-15T15:54:19.599Z,61.08
2022-09-15T15:56:48.379Z,61.10
2022-09-15T15:59:17.629Z,60.84
2022-09-15T16:01:50.096Z,60.29
2022-09-15T16:04:18.559Z,61.27
2022-09-15T16:06:47.739Z,61.23
2022-09-15T16:09:19.281Z,61.34
2022-09-15T16:11:48.031Z,60.60
2022-09-15T16:14:18.351Z,60.97
2022-09-15T16:16:46.929Z,61.28
2022-09-15T16:19:15.530Z,60.90
2022-09-15T16:21:45.608Z,61.18
2022-09-15T16:24:21.368Z,60.95
2022-09-15T16:26:53.724Z,60.69
2022-09-15T16:29:26.462Z,60.63
2022-09-15T16:31:55.394Z,61.05
2022-09-15T16:34:24.099Z,60.96
2022-09-15T16:36:52.639Z,60.70
2022-09-15T16:39:26.468Z,60.43
2022-09-15T16:41:55.091Z,61.22
2022-09-15T16:44:23.569Z,60.75
2022-09-15T16:46:52.175Z,60.92
2022-09-15T16:49:20.852Z,60.70
2022-09-15T16:51:49.371Z,61.15
2022-09-15T16:54:20.470Z,61.13
2022-09-15T16:56:52.179Z,60.85
2022-09-15T16:59:20.639Z,61.28
2022-09-15T17:01:49.728Z,60.75
2022-09-15T17:04:19.442Z,60.75
2022-09-15T17:06:48.239Z,60.84
2022-09-15T17:09:16.831Z,60.64
2022-09-15T17:11:45.989Z,60.96
2022-09-15T17:14:18.070Z,60.53
2022-09-15T17:16:47.749Z,60.10
2022-09-15T17:19:18.739Z,59.97
2022-09-15T17:21:48.001Z,60.27
2022-09-15T17:24:17.620Z,60.18
2022-09-15T17:26:46.149Z,60.57
2022-09-15T17:29:16.179Z,60.17
2022-09-15T17:31:45.189Z,60.03
2022-09-15T17:34:17.590Z,59.20
2022-09-15T17:36:48.736Z,59.89
2022-09-15T17:39:18.558Z,60.15
2022-09-15T17:41:49.187Z,60.02
2022-09-15T17:44:20.294Z,55.88
2022-09-15T17:46:49.551Z,50.92
2022-09-15T17:49:18.389Z,48.46
2022-09-15T17:51:49.275Z,50.25
2022-09-15T17:54:17.829Z,53.80
2022-09-15T17:56:46.844Z,55.82
2022-09-15T17:59:16.409Z,57.44
2022-09-15T18:01:47.317Z,58.33
2022-09-15T18:04:16.720Z,58.16
2022-09-15T18:06:45.749Z,59.07
2022-09-15T18:09:16.305Z,58.91
2022-09-15T18:11:44.897Z,59.34
2022-09-15T18:14:15.294Z,59.12
2022-09-15T18:16:47.850Z,59.65
2022-09-15T18:19:17.789Z,59.70
2022-09-15T18:21:50.374Z,59.63
2022-09-15T18:24:18.880Z,60.04
2022-09-15T18:26:47.418Z,59.99
2022-09-15T18:29:15.869Z,59.96
2022-09-15T18:31:45.969Z,59.95
2022-09-15T18:34:14.520Z,59.69
2022-09-15T18:36:43.060Z,59.67
2022-09-15T18:39:12.199Z,60.00
2022-09-15T18:41:40.786Z,59.63
2022-09-15T18:44:09.329Z,60.07
2022-09-15T18:46:39.435Z,59.79
2022-09-15T18:49:11.089Z,60.04
2022-09-15T18:51:51.262Z,59.88
2022-09-15T18:54:23.484Z,60.22
2022-09-15T18:56:52.331Z,60.55
2022-09-15T18:59:20.932Z,60.40
2022-09-15T19:01:49.569Z,60.56
2022-09-15T19:04:19.669Z,60.49
2022-09-15T19:06:48.189Z,60.71
2022-09-15T19:09:16.779Z,61.13
2022-09-15T19:11:45.349Z,61.34
2022-09-15T19:14:13.769Z,60.74
2022-09-15T19:16:57.207Z,61.91
2022-09-15T19:19:27.525Z,61.94
2022-09-15T19:21:56.069Z,61.94
2022-09-15T19:24:29.031Z,62.11
2022-09-15T19:26:57.578Z,61.05
2022-09-15T19:29:26.399Z,61.87
2022-09-15T19:31:55.261Z,60.16
2022-09-15T19:34:23.874Z,60.47
2022-09-15T19:36:55.246Z,60.19
2022-09-15T19:39:26.874Z,60.08
2022-09-15T19:41:56.504Z,60.79
2022-09-15T19:44:25.878Z,61.60
2022-09-15T19:46:54.600Z,61.77
2022-09-15T19:49:23.464Z,61.96
2022-09-15T19:51:55.819Z,62.02
2022-09-15T19:54:24.467Z,61.97
2022-09-15T19:56:57.369Z,62.00
2022-09-15T19:59:30.771Z,61.82
2022-09-15T20:02:00.126Z,60.23
2022-09-15T20:04:29.610Z,60.62
2022-09-15T20:06:59.697Z,60.72
2022-09-15T20:09:28.279Z,60.85
2022-09-15T20:11:56.800Z,60.94
2022-09-15T20:14:25.554Z,60.10
2022-09-15T20:16:56.205Z,60.00
2022-09-15T20:19:27.384Z,60.10
2022-09-15T20:21:55.915Z,60.44
2022-09-15T20:24:26.664Z,60.58
2022-09-15T20:26:55.419Z,62.65
2022-09-15T20:29:24.045Z,62.75
2022-09-15T20:31:52.674Z,61.89
2022-09-15T20:34:21.194Z,62.65
2022-09-15T20:36:49.874Z,62.52
2022-09-15T20:39:22.634Z,62.62
2022-09-15T20:41:53.287Z,62.63
2022-09-15T20:44:21.779Z,62.45
2022-09-15T20:46:50.334Z,62.62
2022-09-15T20:49:18.954Z,62.26
2022-09-15T20:51:51.874Z,62.66
2022-09-15T20:54:21.916Z,60.65
2022-09-15T20:56:50.410Z,60.76
2022-09-15T20:59:20.560Z,61.14
2022-09-15T21:01:49.346Z,60.62
2022-09-15T21:04:21.335Z,60.31
2022-09-15T21:06:50.158Z,61.04
2022-09-15T21:09:18.764Z,61.29
2022-09-15T21:11:52.747Z,61.41
2022-09-15T21:14:23.476Z,63.53
2022-09-15T21:16:52.050Z,63.53
2022-09-15T21:19:20.716Z,63.20
2022-09-15T21:21:49.570Z,63.78
2022-09-15T21:24:18.604Z,63.76
2022-09-15T21:27:06.098Z,63.89
2022-09-15T21:29:36.099Z,64.01
2022-09-15T21:32:04.996Z,64.11
2022-09-15T21:34:33.544Z,64.13
2022-09-15T21:37:02.024Z,64.25
2022-09-15T21:39:30.679Z,63.97
2022-09-15T21:42:01.954Z,64.22
2022-09-15T21:44:30.494Z,64.42
2022-09-15T21:47:01.984Z,64.59
2022-09-15T21:49:31.554Z,63.99
2022-09-15T21:52:00.104Z,64.53
2022-09-15T21:54:28.729Z,64.59
2022-09-15T21:56:57.738Z,64.56
2022-09-15T21:59:26.484Z,64.69
2022-09-15T22:01:55.674Z,64.16
2022-09-15T22:04:25.924Z,64.60
2022-09-15T22:06:54.583Z,64.52
2022-09-15T22:09:23.303Z,64.06
2022-09-15T22:11:54.628Z,64.79
2022-09-15T22:14:23.218Z,64.54
2022-09-15T22:16:52.137Z,64.61
2022-09-15T22:19:21.772Z,64.88
2022-09-15T22:21:51.888Z,63.90
2022-09-15T22:24:24.534Z,64.41
2022-09-15T22:26:53.133Z,63.28
2022-09-15T22:29:21.853Z,63.78
2022-09-15T22:31:50.391Z,63.73
2022-09-15T22:34:18.944Z,63.26
2022-09-15T22:36:47.454Z,63.59
2022-09-15T22:39:19.294Z,64.03
2022-09-15T22:41:47.784Z,63.41
2022-09-15T22:44:20.304Z,62.30
2022-09-15T22:46:49.913Z,62.66
2022-09-15T22:49:18.478Z,62.17
2022-09-15T22:51:47.577Z,63.68
2022-09-15T22:54:18.083Z,62.99
2022-09-15T22:56:47.921Z,63.18
2022-09-15T22:59:17.245Z,62.57
2022-09-15T23:01:45.975Z,63.28
2022-09-15T23:04:14.574Z,63.90
2022-09-15T23:06:43.094Z,64.30
2022-09-15T23:09:12.794Z,63.30
2022-09-15T23:11:43.304Z,63.21
2022-09-15T23:14:15.252Z,63.46
2022-09-15T23:16:44.205Z,62.74
2022-09-15T23:19:16.065Z,63.67
2022-09-15T23:21:47.814Z,64.05
2022-09-15T23:24:17.794Z,62.94
2022-09-15T23:26:49.874Z,62.47
2022-09-15T23:29:18.964Z,63.43
2022-09-15T23:31:47.608Z,63.78
2022-09-15T23:34:17.504Z,64.23
2022-09-15T23:36:46.154Z,63.43
2022-09-15T23:39:14.907Z,64.34
2022-09-15T23:41:46.376Z,63.63
2022-09-15T23:44:22.094Z,63.23
2022-09-15T23:46:50.786Z,62.14
2022-09-15T23:49:20.334Z,62.34
2022-09-15T23:51:49.454Z,62.07
2022-09-15T23:54:18.095Z,63.24
2022-09-15T23:56:46.654Z,64.60
2022-09-15T23:59:16.824Z,64.50
